Time;durP1;ratioP1;P1;durP2;ratioP2;P2;SDS_P1;SDS_P2;PMS_P1;PMS_P2;Temp;Humidity;BMP_temperature;BMP_pressure;BME280_temperature;BME280_humidity;BME280_pressure;Samples;Min_cycle;Max_cycle;Signal;HPM_P1;HPM_P2
2024/03/08 00:00:42;;;;;;;22.10;15.90;;;6.80;5.10;;;;;;5087641;28;20203;-81
2024/03/08 00:03:10;;;;;;;21.80;14.77;;;6.80;6.10;;;;;;5070954;28;20187;-82
2024/03/08 00:05:38;;;;;;;20.63;14.77;;;6.80;4.40;;;;;;5076251;28;20631;-81
2024/03/08 00:08:04;;;;;;;21.60;14.70;;;6.80;3.30;;;;;;5093266;28;20172;-80
2024/03/08 00:10:30;;;;;;;21.20;15.07;;;6.80;3.00;;;;;;5095454;28;20205;-81
2024/03/08 00:12:57;;;;;;;21.80;15.10;;;6.70;4.60;;;;;;5099462;28;20246;-81
2024/03/08 00:15:23;;;;;;;19.67;14.77;;;6.70;3.50;;;;;;5091974;28;20224;-81
2024/03/08 00:17:49;;;;;;;20.80;15.10;;;6.60;4.50;;;;;;5079960;28;20586;-81
2024/03/08 00:20:17;;;;;;;20.73;14.90;;;6.70;1.00;;;;;;5089407;28;20235;-81
2024/03/08 00:22:43;;;;;;;21.30;14.00;;;6.60;1.00;;;;;;5074576;28;20186;-81
2024/03/08 00:25:09;;;;;;;20.83;14.47;;;6.50;1.00;;;;;;5085878;28;20168;-80
2024/03/08 00:27:35;;;;;;;20.97;14.33;;;6.50;1.00;;;;;;5070622;28;20184;-83
2024/03/08 00:30:01;;;;;;;19.87;14.27;;;6.60;1.00;;;;;;5088821;28;20224;-80
2024/03/08 00:32:27;;;;;;;25.50;16.07;;;6.60;1.00;;;;;;5090921;28;20679;-81
2024/03/08 00:34:54;;;;;;;20.57;14.70;;;6.60;1.00;;;;;;5070522;28;20181;-80
2024/03/08 00:37:23;;;;;;;19.73;14.27;;;6.70;1.00;;;;;;5091244;28;20167;-79
2024/03/08 00:39:49;;;;;;;20.27;15.37;;;6.60;1.00;;;;;;5087069;28;20192;-80
2024/03/08 00:42:16;;;;;;;20.93;14.97;;;6.60;1.00;;;;;;5085726;28;20172;-81
2024/03/08 00:44:42;;;;;;;20.13;15.30;;;6.50;1.00;;;;;;5091484;28;20190;-81
2024/03/08 00:47:08;;;;;;;20.40;13.87;;;6.50;1.00;;;;;;5082846;28;20176;-81
2024/03/08 00:49:33;;;;;;;23.83;15.77;;;6.60;1.00;;;;;;5073094;28;20181;-80
2024/03/08 00:51:59;;;;;;;20.80;15.03;;;6.40;1.00;;;;;;5088896;28;20295;-81
2024/03/08 00:54:26;;;;;;;21.77;15.43;;;6.50;1.00;;;;;;5089946;28;20171;-80
2024/03/08 00:56:51;;;;;;;21.03;15.23;;;6.40;1.00;;;;;;5090556;28;20190;-81
2024/03/08 00:59:17;;;;;;;20.37;14.93;;;6.40;1.00;;;;;;5090600;28;20168;-81
2024/03/08 01:01:43;;;;;;;22.10;15.17;;;6.40;1.00;;;;;;5076385;28;20176;-81
2024/03/08 01:04:10;;;;;;;24.20;15.17;;;6.40;1.00;;;;;;5083454;28;20596;-81
2024/03/08 01:06:35;;;;;;;20.63;15.20;;;6.30;1.00;;;;;;5089350;28;20175;-81
2024/03/08 01:09:01;;;;;;;19.37;14.80;;;6.40;1.00;;;;;;5091220;28;20581;-81
2024/03/08 01:11:28;;;;;;;28.83;15.90;;;6.30;1.00;;;;;;5102309;28;20234;-80
2024/03/08 01:13:54;;;;;;;21.57;15.20;;;6.30;1.00;;;;;;5100630;28;20168;-80
2024/03/08 01:16:22;;;;;;;23.27;15.43;;;6.30;1.00;;;;;;5092192;28;20167;-81
2024/03/08 01:18:48;;;;;;;24.17;15.80;;;6.20;1.00;;;;;;5090535;28;20191;-81
2024/03/08 01:21:14;;;;;;;21.87;15.67;;;6.20;1.00;;;;;;5090358;28;20628;-81
2024/03/08 01:23:39;;;;;;;20.57;14.97;;;6.20;1.00;;;;;;5091199;28;20551;-80
2024/03/08 01:26:06;;;;;;;21.90;16.03;;;6.30;1.00;;;;;;5092016;28;20167;-80
2024/03/08 01:28:34;;;;;;;20.87;15.37;;;6.30;1.00;;;;;;5091483;28;20176;-80
2024/03/08 01:30:59;;;;;;;20.63;15.60;;;6.20;1.00;;;;;;5090617;28;20608;-81
2024/03/08 01:33:26;;;;;;;19.27;14.13;;;6.30;1.00;;;;;;5089634;28;20171;-80
2024/03/08 01:35:53;;;;;;;18.97;14.63;;;6.20;1.00;;;;;;5090523;28;20167;-82
2024/03/08 01:38:20;;;;;;;23.00;16.20;;;6.10;1.00;;;;;;5088867;28;20200;-80
2024/03/08 01:40:46;;;;;;;21.03;15.37;;;6.10;1.00;;;;;;5091304;28;20290;-81
2024/03/08 01:43:28;;;;;;;23.23;16.03;;;6.10;1.00;;;;;;5093514;28;20219;-81
2024/03/08 01:45:57;;;;;;;23.33;17.17;;;6.10;1.00;;;;;;5096182;28;20167;-81
2024/03/08 01:48:23;;;;;;;23.70;16.27;;;6.20;1.00;;;;;;5093945;28;20254;-80
2024/03/08 01:50:51;;;;;;;21.87;15.17;;;6.20;1.00;;;;;;5094037;28;20297;-80
2024/03/08 01:53:18;;;;;;;25.30;17.93;;;6.00;1.00;;;;;;5094048;28;20194;-81
2024/03/08 01:55:47;;;;;;;23.03;16.23;;;6.20;1.00;;;;;;5093911;28;20167;-80
2024/03/08 01:58:16;;;;;;;21.87;16.40;;;6.00;1.00;;;;;;5093445;28;20176;-81
2024/03/08 02:00:44;;;;;;;21.83;17.03;;;6.00;1.00;;;;;;5093286;28;20266;-81
2024/03/08 02:03:10;;;;;;;19.37;15.50;;;6.00;1.00;;;;;;5093023;28;20195;-80
2024/03/08 02:05:38;;;;;;;21.20;17.13;;;6.00;1.00;;;;;;5093809;28;20174;-81
2024/03/08 02:08:07;;;;;;;20.67;15.93;;;5.90;1.00;;;;;;5093149;28;20175;-81
2024/03/08 02:10:33;;;;;;;23.37;17.23;;;5.90;1.00;;;;;;5092453;28;20237;-80
2024/03/08 02:13:02;;;;;;;21.43;16.20;;;5.90;1.00;;;;;;5095397;28;20217;-79
2024/03/08 02:15:53;;;;;;;24.60;17.40;;;5.90;1.00;;;;;;5093040;28;20176;-81
2024/03/08 02:18:19;;;;;;;24.80;17.73;;;5.90;1.00;;;;;;5095411;28;20182;-80
2024/03/08 02:20:55;;;;;;;24.97;17.17;;;5.90;1.00;;;;;;5094650;28;20208;-80
2024/03/08 02:23:21;;;;;;;21.57;16.53;;;6.00;1.00;;;;;;5093939;28;20394;-81
2024/03/08 02:25:48;;;;;;;21.50;17.03;;;6.00;1.00;;;;;;5094060;28;20525;-81
2024/03/08 02:28:14;;;;;;;22.23;16.50;;;5.90;1.00;;;;;;5092786;28;20171;-83
2024/03/08 02:30:40;;;;;;;26.07;16.93;;;5.80;1.00;;;;;;5092928;28;20172;-81
2024/03/08 02:33:07;;;;;;;25.57;15.67;;;5.70;1.00;;;;;;5094168;28;20179;-80
2024/03/08 02:35:36;;;;;;;22.13;17.33;;;5.80;1.00;;;;;;5093181;28;20187;-80
2024/03/08 02:38:03;;;;;;;25.10;18.43;;;5.70;1.00;;;;;;5092597;28;20172;-80
2024/03/08 02:40:30;;;;;;;24.93;17.30;;;5.70;1.00;;;;;;5094477;28;20176;-80
2024/03/08 02:42:55;;;;;;;22.10;18.30;;;5.70;1.00;;;;;;5093460;28;20171;-81
2024/03/08 02:45:21;;;;;;;24.07;18.17;;;5.70;1.00;;;;;;5092025;28;20195;-80
2024/03/08 02:47:49;;;;;;;24.50;18.57;;;5.80;1.00;;;;;;5092817;28;20175;-80
2024/03/08 02:50:16;;;;;;;24.03;16.50;;;5.70;1.00;;;;;;5092527;28;20465;-80
2024/03/08 02:52:42;;;;;;;25.60;18.57;;;5.70;1.00;;;;;;5090818;28;20247;-80
2024/03/08 02:55:10;;;;;;;22.47;17.23;;;5.60;1.00;;;;;;5094288;28;20287;-80
2024/03/08 02:57:36;;;;;;;23.60;18.27;;;5.70;1.00;;;;;;5093310;28;20505;-80
2024/03/08 03:00:03;;;;;;;23.80;18.33;;;5.60;1.00;;;;;;5092748;28;20172;-81
2024/03/08 03:02:29;;;;;;;25.03;18.50;;;5.60;1.00;;;;;;5092265;28;20187;-80
2024/03/08 03:04:55;;;;;;;21.50;17.07;;;5.70;1.00;;;;;;5093411;28;20164;-81
2024/03/08 03:07:21;;;;;;;23.00;18.43;;;5.50;1.00;;;;;;5093673;28;20183;-80
2024/03/08 03:09:47;;;;;;;22.87;18.10;;;5.50;1.00;;;;;;5093546;28;20232;-79
2024/03/08 03:12:13;;;;;;;23.83;18.63;;;5.50;1.00;;;;;;5092441;28;20215;-79
2024/03/08 03:14:39;;;;;;;24.60;17.73;;;5.50;1.00;;;;;;5091424;28;20230;-81
2024/03/08 03:17:05;;;;;;;24.40;19.57;;;5.60;1.00;;;;;;5093478;28;20206;-80
2024/03/08 03:19:31;;;;;;;24.10;18.87;;;5.40;1.00;;;;;;5092157;28;20229;-80
2024/03/08 03:21:57;;;;;;;22.40;17.03;;;5.40;1.00;;;;;;5093098;28;20865;-80
2024/03/08 03:24:23;;;;;;;23.77;18.63;;;5.40;1.00;;;;;;5093041;28;20199;-81
2024/03/08 03:26:50;;;;;;;25.23;17.30;;;5.40;1.00;;;;;;5092991;28;20632;-80
2024/03/08 03:29:16;;;;;;;24.17;17.73;;;5.40;1.00;;;;;;5093450;28;20282;-80
2024/03/08 03:31:46;;;;;;;23.43;18.33;;;5.30;1.00;;;;;;5092241;28;20206;-81
2024/03/08 03:34:12;;;;;;;23.57;19.67;;;5.40;1.00;;;;;;5092281;28;20314;-80
2024/03/08 03:36:42;;;;;;;22.83;18.93;;;5.40;1.00;;;;;;5093683;28;20190;-80
2024/03/08 03:39:15;;;;;;;23.47;18.47;;;5.30;1.00;;;;;;5091503;28;20194;-80
2024/03/08 03:41:42;;;;;;;25.87;18.57;;;5.20;1.00;;;;;;5093556;28;20170;-81
2024/03/08 03:44:07;;;;;;;25.03;19.57;;;5.20;1.00;;;;;;5091725;28;20176;-80
2024/03/08 03:46:35;;;;;;;24.70;18.60;;;5.20;1.00;;;;;;5093580;28;20674;-80
2024/03/08 03:49:01;;;;;;;25.50;20.20;;;5.20;1.00;;;;;;5093003;28;20168;-81
2024/03/08 03:51:27;;;;;;;25.77;19.70;;;5.20;1.00;;;;;;5090946;28;20268;-79
2024/03/08 03:53:53;;;;;;;23.67;18.87;;;5.10;1.00;;;;;;5093011;28;20240;-80
2024/03/08 03:56:19;;;;;;;25.33;17.77;;;5.20;1.00;;;;;;5092502;28;20175;-81
2024/03/08 03:58:44;;;;;;;24.97;19.03;;;5.20;1.00;;;;;;5091543;28;20211;-81
2024/03/08 04:01:10;;;;;;;23.70;17.60;;;5.20;1.00;;;;;;5092180;28;20625;-80
2024/03/08 04:03:36;;;;;;;23.43;19.43;;;5.10;1.00;;;;;;5090845;28;20286;-80
2024/03/08 04:06:04;;;;;;;21.93;18.03;;;5.10;1.00;;;;;;5092060;28;20308;-80
2024/03/08 04:08:30;;;;;;;24.23;19.37;;;5.10;1.00;;;;;;5091497;28;20172;-80
2024/03/08 04:10:58;;;;;;;30.53;19.93;;;5.00;1.00;;;;;;5090674;28;20168;-80
2024/03/08 04:13:24;;;;;;;24.67;19.27;;;5.00;1.00;;;;;;5091184;28;20262;-80
2024/03/08 04:15:49;;;;;;;25.00;18.47;;;5.00;1.00;;;;;;5091433;28;20258;-80
2024/03/08 04:18:15;;;;;;;22.37;18.63;;;5.00;1.00;;;;;;5091021;28;20195;-81
2024/03/08 04:20:41;;;;;;;25.37;19.37;;;5.00;1.00;;;;;;5091308;28;20237;-79
2024/03/08 04:23:06;;;;;;;23.87;19.70;;;5.00;1.00;;;;;;5092000;28;20172;-80
2024/03/08 04:25:33;;;;;;;28.30;20.73;;;5.00;1.00;;;;;;5092492;28;20179;-82
2024/03/08 04:27:58;;;;;;;26.57;20.33;;;4.90;1.00;;;;;;5091258;28;20601;-80
2024/03/08 04:30:24;;;;;;;23.97;20.40;;;5.00;1.00;;;;;;5090485;28;20176;-80
2024/03/08 04:32:50;;;;;;;26.37;19.53;;;5.00;1.00;;;;;;5092261;28;20279;-79
2024/03/08 04:35:16;;;;;;;25.93;18.97;;;5.00;1.00;;;;;;5092211;28;20248;-80
2024/03/08 04:37:42;;;;;;;26.43;20.47;;;4.90;1.00;;;;;;5090660;28;20183;-80
2024/03/08 04:40:08;;;;;;;26.00;20.70;;;5.00;1.00;;;;;;5092636;28;20595;-81
2024/03/08 04:42:35;;;;;;;24.63;19.97;;;4.90;1.00;;;;;;5090140;28;20180;-79
2024/03/08 04:45:01;;;;;;;23.97;19.43;;;4.90;1.00;;;;;;5092207;28;20254;-82
2024/03/08 04:47:26;;;;;;;22.03;18.50;;;5.00;1.00;;;;;;5090382;28;20254;-80
2024/03/08 04:49:53;;;;;;;24.47;20.03;;;4.90;1.00;;;;;;5090547;28;20199;-80
2024/03/08 04:52:18;;;;;;;25.77;20.03;;;4.90;1.00;;;;;;5091038;28;20223;-91
2024/03/08 04:54:47;;;;;;;26.27;20.17;;;4.90;1.00;;;;;;5090141;28;20179;-81
2024/03/08 04:57:12;;;;;;;25.63;20.30;;;4.90;1.00;;;;;;5092681;28;20176;-84
2024/03/08 04:59:38;;;;;;;24.60;19.20;;;4.90;1.00;;;;;;5090043;28;20175;-81
2024/03/08 05:02:04;;;;;;;26.00;19.30;;;4.90;1.00;;;;;;5089537;28;20281;-81
2024/03/08 05:04:30;;;;;;;25.30;20.70;;;4.90;1.00;;;;;;5092156;28;20175;-81
2024/03/08 05:06:55;;;;;;;25.47;19.47;;;4.90;1.00;;;;;;5092182;28;20297;-80
2024/03/08 05:09:21;;;;;;;23.60;18.90;;;4.90;1.00;;;;;;5090756;28;20172;-81
2024/03/08 05:11:47;;;;;;;28.33;20.53;;;4.80;1.00;;;;;;5090675;28;20298;-81
2024/03/08 05:14:16;;;;;;;23.37;19.53;;;4.70;1.00;;;;;;5090816;28;20184;-80
2024/03/08 05:16:49;;;;;;;23.57;19.60;;;4.80;1.00;;;;;;5097706;28;20268;-83
2024/03/08 05:19:19;;;;;;;24.27;19.17;;;4.80;1.00;;;;;;5101192;28;20175;-81
2024/03/08 05:21:49;;;;;;;26.73;20.20;;;4.70;2.10;;;;;;5097109;28;20572;-81
2024/03/08 05:24:18;;;;;;;28.27;20.17;;;4.70;3.40;;;;;;5098156;28;20171;-79
2024/03/08 05:26:44;;;;;;;26.67;19.93;;;4.70;3.40;;;;;;5097557;28;20167;-80
2024/03/08 05:29:10;;;;;;;24.43;20.70;;;4.70;2.40;;;;;;5096399;28;20168;-81
2024/03/08 05:31:49;;;;;;;22.17;19.77;;;4.70;5.00;;;;;;5098474;28;20256;-81
2024/03/08 05:34:16;;;;;;;25.07;19.57;;;4.70;2.60;;;;;;5097072;28;20298;-81
2024/03/08 05:36:44;;;;;;;25.17;19.03;;;4.70;2.10;;;;;;5097230;28;20183;-81
2024/03/08 05:39:11;;;;;;;24.13;18.90;;;4.60;4.00;;;;;;5098011;28;20183;-80
2024/03/08 05:41:39;;;;;;;26.03;19.67;;;4.60;4.40;;;;;;5097092;28;20167;-81
2024/03/08 05:44:04;;;;;;;24.33;19.40;;;4.60;5.10;;;;;;5097334;28;20178;-80
2024/03/08 05:46:30;;;;;;;27.13;20.37;;;4.60;4.80;;;;;;5097515;28;20167;-80
2024/03/08 05:48:56;;;;;;;25.53;19.73;;;4.70;5.30;;;;;;5098226;28;20175;-81
2024/03/08 05:51:24;;;;;;;29.10;20.37;;;4.70;5.20;;;;;;5097331;28;20349;-80
2024/03/08 05:53:49;;;;;;;25.93;20.53;;;4.60;6.40;;;;;;5097848;28;20187;-81
2024/03/08 05:56:15;;;;;;;27.37;20.13;;;4.70;7.00;;;;;;5099564;28;20167;-81
2024/03/08 05:58:41;;;;;;;25.97;20.33;;;4.60;7.40;;;;;;5099704;28;20203;-80
2024/03/08 06:01:07;;;;;;;25.63;19.73;;;4.60;4.60;;;;;;5098474;28;20534;-85
2024/03/08 06:03:34;;;;;;;27.67;20.23;;;4.60;5.10;;;;;;5098061;28;20298;-80
2024/03/08 06:06:00;;;;;;;23.70;18.67;;;4.60;6.70;;;;;;5096254;28;20178;-80
2024/03/08 06:08:29;;;;;;;27.73;19.67;;;4.70;7.00;;;;;;5096132;28;20576;-81
2024/03/08 06:10:56;;;;;;;26.83;20.70;;;4.50;8.20;;;;;;5096405;28;20202;-90
2024/03/08 06:13:21;;;;;;;25.40;18.53;;;4.50;9.60;;;;;;5096141;28;20179;-80
2024/03/08 06:15:47;;;;;;;24.80;19.43;;;4.50;8.80;;;;;;5080241;28;20167;-80
2024/03/08 06:18:14;;;;;;;28.30;20.67;;;4.50;11.00;;;;;;5097169;28;20254;-81
2024/03/08 06:20:43;;;;;;;25.50;19.63;;;4.50;11.80;;;;;;5098186;28;20164;-80
2024/03/08 06:23:09;;;;;;;28.03;19.07;;;4.50;13.40;;;;;;5098266;28;20207;-81
2024/03/08 06:25:35;;;;;;;25.00;19.50;;;4.50;11.10;;;;;;5096959;28;20171;-85
2024/03/08 06:28:00;;;;;;;27.30;19.60;;;4.50;10.90;;;;;;5093514;28;20172;-80
2024/03/08 06:30:26;;;;;;;26.87;20.03;;;4.50;10.70;;;;;;5094632;28;20616;-80
2024/03/08 06:32:52;;;;;;;29.07;20.37;;;4.50;10.60;;;;;;5093444;28;20212;-80
2024/03/08 06:35:17;;;;;;;24.50;19.07;;;4.60;7.70;;;;;;5092886;28;20179;-82
2024/03/08 06:37:44;;;;;;;26.47;20.17;;;4.60;7.90;;;;;;5092921;28;20206;-86
2024/03/08 06:40:13;;;;;;;24.97;19.37;;;4.60;8.70;;;;;;5092813;28;20195;-81
2024/03/08 06:42:40;;;;;;;23.20;18.87;;;4.50;9.20;;;;;;5091988;28;20270;-85
2024/03/08 06:45:06;;;;;;;24.00;18.73;;;4.50;9.20;;;;;;5093881;28;20168;-82
2024/03/08 06:47:33;;;;;;;27.70;18.13;;;4.50;9.30;;;;;;5093582;28;20271;-82
2024/03/08 06:49:58;;;;;;;26.63;18.53;;;4.50;10.10;;;;;;5094489;28;20167;-80
2024/03/08 06:52:24;;;;;;;24.43;18.60;;;4.60;10.60;;;;;;5092045;28;20229;-82
2024/03/08 06:54:52;;;;;;;29.20;19.93;;;4.40;10.80;;;;;;5091855;28;20221;-81
2024/03/08 06:57:18;;;;;;;28.70;19.77;;;4.60;11.00;;;;;;5093596;28;20167;-80
2024/03/08 06:59:44;;;;;;;29.17;20.47;;;4.60;11.80;;;;;;5092134;28;20172;-81
2024/03/08 07:02:10;;;;;;;27.40;19.03;;;4.50;10.80;;;;;;5092872;28;20233;-82
2024/03/08 07:04:37;;;;;;;22.93;17.77;;;4.70;6.90;;;;;;5092803;28;20179;-80
2024/03/08 07:07:04;;;;;;;26.63;20.03;;;4.60;4.90;;;;;;5094502;28;20202;-83
2024/03/08 07:09:30;;;;;;;24.07;19.03;;;4.50;4.90;;;;;;5092569;28;20535;-81
2024/03/08 07:11:56;;;;;;;28.07;19.90;;;4.70;5.40;;;;;;5098841;28;20208;-82
2024/03/08 07:14:22;;;;;;;23.73;18.13;;;4.60;5.80;;;;;;5099423;28;20616;-82
2024/03/08 07:16:48;;;;;;;29.03;18.90;;;4.60;6.30;;;;;;5095151;28;20236;-81
2024/03/08 07:19:15;;;;;;;26.73;19.80;;;4.60;6.10;;;;;;5093829;28;20299;-89
2024/03/08 07:21:41;;;;;;;27.97;19.97;;;4.70;7.00;;;;;;5093945;28;20187;-82
2024/03/08 07:24:27;;;;;;;28.10;19.00;;;4.70;5.10;;;;;;5094354;28;20168;-82
2024/03/08 07:26:55;;;;;;;26.63;19.17;;;4.70;2.70;;;;;;5092313;28;20190;-82
2024/03/08 07:29:21;;;;;;;25.60;19.63;;;4.70;2.30;;;;;;5091125;28;20647;-81
2024/03/08 07:31:56;;;;;;;27.33;20.47;;;4.80;2.80;;;;;;5094232;28;20208;-81
2024/03/08 07:34:22;;;;;;;25.97;19.60;;;4.80;1.00;;;;;;5093436;28;20177;-92
2024/03/08 07:36:50;;;;;;;25.87;18.70;;;4.90;1.00;;;;;;5092810;28;20168;-81
2024/03/08 07:39:15;;;;;;;25.23;18.57;;;5.00;1.00;;;;;;5091797;28;20694;-80
2024/03/08 07:41:41;;;;;;;26.63;20.70;;;5.10;1.00;;;;;;5092678;28;20180;-80
2024/03/08 07:44:07;;;;;;;25.17;19.23;;;5.00;1.00;;;;;;5092810;28;20827;-81
2024/03/08 07:46:34;;;;;;;24.67;18.27;;;5.10;1.00;;;;;;5092353;28;20176;-82
2024/03/08 07:48:59;;;;;;;26.07;18.23;;;5.20;1.00;;;;;;5093116;28;20546;-83
2024/03/08 07:51:25;;;;;;;24.73;18.47;;;5.10;1.00;;;;;;5093320;28;20199;-82
2024/03/08 07:53:51;;;;;;;26.67;20.03;;;5.10;1.00;;;;;;5094758;28;20241;-82
2024/03/08 07:56:18;;;;;;;24.87;19.73;;;5.30;1.00;;;;;;5092950;28;20195;-81
2024/03/08 07:58:45;;;;;;;26.50;19.00;;;5.20;1.00;;;;;;5093998;28;20198;-83
2024/03/08 08:01:17;;;;;;;26.50;19.53;;;5.30;1.00;;;;;;5092074;28;20380;-81
2024/03/08 08:03:43;;;;;;;25.30;19.97;;;5.30;1.00;;;;;;5095240;28;20187;-81
2024/03/08 08:06:09;;;;;;;25.83;20.57;;;5.40;1.00;;;;;;5095087;28;20181;-81
2024/03/08 08:08:36;;;;;;;22.33;16.63;;;5.40;1.00;;;;;;5094137;28;20636;-82
2024/03/08 08:11:02;;;;;;;25.00;18.40;;;5.50;1.00;;;;;;5093770;28;20183;-82
2024/03/08 08:13:32;;;;;;;23.40;19.50;;;5.50;1.00;;;;;;5094627;28;20567;-81
2024/03/08 08:15:58;;;;;;;25.20;17.83;;;5.50;1.00;;;;;;5093493;28;20199;-82
2024/03/08 08:18:25;;;;;;;24.90;18.70;;;5.50;1.00;;;;;;5088334;28;20215;-82
2024/03/08 08:20:52;;;;;;;23.97;17.33;;;5.60;1.00;;;;;;5076140;28;20176;-81
2024/03/08 08:23:19;;;;;;;28.43;19.70;;;5.60;1.00;;;;;;5074745;28;20172;-83
2024/03/08 08:25:45;;;;;;;22.73;17.97;;;5.70;1.00;;;;;;5075308;28;20241;-82
2024/03/08 08:28:12;;;;;;;23.93;18.10;;;5.80;1.00;;;;;;5073947;28;20175;-82
2024/03/08 08:30:38;;;;;;;23.57;17.80;;;5.80;1.00;;;;;;5073558;28;20176;-82
2024/03/08 08:33:05;;;;;;;26.40;18.50;;;6.00;1.00;;;;;;5075905;28;20245;-82
2024/03/08 08:35:32;;;;;;;26.17;17.83;;;5.70;1.00;;;;;;5075958;28;20177;-81
2024/03/08 08:37:58;;;;;;;24.07;18.17;;;6.10;1.00;;;;;;5075291;28;20172;-82
2024/03/08 08:40:25;;;;;;;25.37;19.87;;;6.10;1.00;;;;;;5075775;28;20243;-82
2024/03/08 08:42:52;;;;;;;23.27;17.57;;;6.10;1.00;;;;;;5074567;28;20172;-82
2024/03/08 08:45:18;;;;;;;25.73;18.50;;;6.10;1.00;;;;;;5074972;28;20182;-84
2024/03/08 08:47:44;;;;;;;22.17;16.17;;;6.10;1.00;;;;;;5072018;28;20176;-83
2024/03/08 08:50:13;;;;;;;27.97;18.03;;;6.20;1.00;;;;;;5072606;28;20173;-81
2024/03/08 08:52:40;;;;;;;25.00;19.20;;;6.30;1.00;;;;;;5073946;28;20294;-82
2024/03/08 08:55:06;;;;;;;20.67;15.57;;;6.40;1.00;;;;;;5074317;28;20229;-82
2024/03/08 08:57:33;;;;;;;19.97;14.73;;;6.50;1.00;;;;;;5072347;28;20599;-82
2024/03/08 09:00:00;;;;;;;23.80;17.73;;;6.60;1.00;;;;;;5074311;28;20198;-82
2024/03/08 09:02:26;;;;;;;26.43;16.83;;;6.60;1.00;;;;;;5072800;28;20188;-81
2024/03/08 09:04:52;;;;;;;23.23;17.13;;;6.60;1.00;;;;;;5072311;28;20225;-82
2024/03/08 09:07:18;;;;;;;24.23;17.80;;;6.70;1.00;;;;;;5085992;28;20492;-82
2024/03/08 09:09:45;;;;;;;20.30;15.70;;;6.80;1.00;;;;;;5087174;28;20173;-82
2024/03/08 09:12:13;;;;;;;21.23;16.00;;;6.90;1.00;;;;;;5075526;28;20251;-82
2024/03/08 09:14:41;;;;;;;21.93;16.03;;;6.90;1.00;;;;;;5072711;28;20179;-82
2024/03/08 09:17:08;;;;;;;23.70;18.13;;;7.00;1.00;;;;;;5072627;28;20256;-81
2024/03/08 09:19:37;;;;;;;20.57;16.83;;;7.10;1.00;;;;;;5072135;28;20230;-82
2024/03/08 09:22:04;;;;;;;24.53;17.37;;;7.10;1.00;;;;;;5071658;28;20362;-83
2024/03/08 09:24:30;;;;;;;23.73;16.70;;;7.20;1.00;;;;;;5071364;28;20241;-81
2024/03/08 09:26:58;;;;;;;21.43;17.33;;;7.40;1.00;;;;;;5072445;28;20179;-82
2024/03/08 09:29:25;;;;;;;24.07;16.47;;;7.50;1.00;;;;;;5072731;28;20464;-83
2024/03/08 09:31:51;;;;;;;21.80;16.90;;;7.60;1.00;;;;;;5072148;28;20230;-82
2024/03/08 09:34:18;;;;;;;23.10;17.83;;;7.60;1.00;;;;;;5072661;28;20160;-82
2024/03/08 09:36:44;;;;;;;22.30;17.37;;;7.70;1.00;;;;;;5072824;28;20172;-82
2024/03/08 09:39:16;;;;;;;23.27;17.07;;;7.80;1.00;;;;;;5072992;28;20184;-81
2024/03/08 09:41:47;;;;;;;18.57;15.53;;;7.90;1.00;;;;;;5072801;28;20179;-82
2024/03/08 09:44:14;;;;;;;20.50;16.03;;;7.80;1.00;;;;;;5071947;28;20169;-82
2024/03/08 09:46:40;;;;;;;20.27;15.83;;;7.90;1.00;;;;;;5071101;28;20184;-81
2024/03/08 09:49:06;;;;;;;23.80;15.30;;;7.90;1.00;;;;;;5070854;28;20180;-83
2024/03/08 09:51:37;;;;;;;23.80;17.77;;;7.80;1.00;;;;;;5071795;28;20199;-82
2024/03/08 09:54:05;;;;;;;21.27;15.60;;;8.00;1.00;;;;;;5071931;28;20185;-81
2024/03/08 09:56:40;;;;;;;22.30;16.13;;;8.20;1.00;;;;;;5070261;28;20275;-81
2024/03/08 10:01:38;;;;;;;19.63;15.43;;;8.30;1.00;;;;;;5073000;28;20179;-83
2024/03/08 10:04:05;;;;;;;18.67;13.53;;;8.50;1.00;;;;;;5074004;28;20184;-82
2024/03/08 10:06:33;;;;;;;19.23;14.33;;;8.50;1.00;;;;;;5075090;28;20295;-82
2024/03/08 10:08:59;;;;;;;19.27;16.03;;;8.30;1.00;;;;;;5076593;28;20215;-83
2024/03/08 10:11:26;;;;;;;20.03;15.70;;;8.40;1.00;;;;;;5075723;28;20196;-82
2024/03/08 10:13:52;;;;;;;19.17;15.67;;;8.60;1.00;;;;;;5074711;28;20182;-81
2024/03/08 10:16:18;;;;;;;19.53;14.37;;;8.60;1.00;;;;;;5075353;28;20271;-83
2024/03/08 10:18:46;;;;;;;18.67;15.57;;;8.60;1.00;;;;;;5074603;28;20680;-82
2024/03/08 10:21:13;;;;;;;20.70;15.47;;;8.70;1.00;;;;;;5074424;28;20199;-82
2024/03/08 10:23:39;;;;;;;20.13;15.90;;;8.60;1.00;;;;;;5074900;28;20168;-83
2024/03/08 10:26:15;;;;;;;19.37;14.77;;;8.90;1.00;;;;;;5075096;28;20255;-84
2024/03/08 10:28:44;;;;;;;18.97;13.77;;;9.10;1.00;;;;;;5073555;28;20226;-82
2024/03/08 10:31:10;;;;;;;18.50;14.23;;;9.00;1.00;;;;;;5073435;28;20176;-82
2024/03/08 10:33:37;;;;;;;18.93;15.10;;;8.90;1.00;;;;;;5074223;28;20172;-80
2024/03/08 10:36:05;;;;;;;18.97;15.27;;;8.90;1.00;;;;;;5073391;28;20556;-83
2024/03/08 10:38:33;;;;;;;18.13;15.53;;;9.10;1.00;;;;;;5074602;28;20342;-82
2024/03/08 10:41:00;;;;;;;18.23;15.03;;;9.40;1.00;;;;;;5074923;28;20160;-82
2024/03/08 10:43:30;;;;;;;19.53;14.70;;;9.60;1.00;;;;;;5073950;28;20225;-82
2024/03/08 10:46:28;;;;;;;19.33;14.40;;;9.80;1.00;;;;;;5073356;28;20248;-82
2024/03/08 10:48:58;;;;;;;19.70;15.10;;;9.90;1.00;;;;;;5040585;28;20184;-83
2024/03/08 10:51:25;;;;;;;19.50;15.47;;;9.90;1.00;;;;;;5074302;28;20269;-84
2024/03/08 10:53:54;;;;;;;19.37;15.03;;;9.90;1.00;;;;;;5073622;28;20191;-83
2024/03/08 10:56:19;;;;;;;18.50;15.20;;;10.10;1.00;;;;;;5075180;28;20222;-82
2024/03/08 10:58:46;;;;;;;17.80;14.40;;;10.20;1.00;;;;;;5074536;28;20232;-83
2024/03/08 11:01:12;;;;;;;18.03;13.93;;;10.10;1.00;;;;;;5074591;28;20573;-82
2024/03/08 11:03:42;;;;;;;18.97;14.40;;;9.90;1.00;;;;;;5075485;28;20203;-82
2024/03/08 11:06:29;;;;;;;19.77;15.07;;;9.90;1.00;;;;;;5073861;28;20211;-82
2024/03/08 11:08:55;;;;;;;17.40;13.43;;;10.20;1.00;;;;;;5073972;28;20177;-83
2024/03/08 11:11:30;;;;;;;17.63;14.40;;;10.10;1.00;;;;;;5072866;28;20255;-83
2024/03/08 11:13:55;;;;;;;18.20;14.60;;;10.20;1.00;;;;;;5072833;28;20203;-82
2024/03/08 11:16:28;;;;;;;16.33;13.23;;;10.00;1.00;;;;;;5072662;28;20655;-83
2024/03/08 11:19:23;;;;;;;17.60;13.77;;;9.90;1.00;;;;;;5072154;28;20513;-83
2024/03/08 11:21:58;;;;;;;18.50;14.27;;;9.80;1.00;;;;;;5072815;28;20235;-81
2024/03/08 11:24:23;;;;;;;19.83;14.73;;;9.80;1.00;;;;;;5073178;28;20636;-82
2024/03/08 11:26:54;;;;;;;19.43;13.67;;;9.80;1.00;;;;;;5073056;28;20268;-84
2024/03/08 11:29:35;;;;;;;18.07;14.10;;;9.80;1.00;;;;;;5072918;28;20640;-82
2024/03/08 11:32:15;;;;;;;20.57;15.57;;;9.80;1.00;;;;;;5071839;28;20212;-82
2024/03/08 11:34:46;;;;;;;18.00;15.47;;;9.90;1.00;;;;;;5072082;28;20168;-81
2024/03/08 11:37:17;;;;;;;17.60;14.10;;;10.20;1.00;;;;;;5072143;28;20191;-82
2024/03/08 11:40:09;;;;;;;17.27;14.40;;;10.40;1.00;;;;;;5072261;28;20208;-82
2024/03/08 11:42:37;;;;;;;20.57;16.03;;;10.40;1.00;;;;;;5074265;28;20168;-81
2024/03/08 11:45:08;;;;;;;17.50;14.87;;;10.40;1.00;;;;;;5072695;28;20263;-82
2024/03/08 11:47:35;;;;;;;17.77;13.93;;;10.70;1.00;;;;;;5072404;28;20529;-82
2024/03/08 11:50:03;;;;;;;19.00;14.63;;;10.80;1.00;;;;;;5072536;28;20183;-82
2024/03/08 11:52:29;;;;;;;18.70;15.10;;;10.70;1.00;;;;;;5073977;28;20200;-82
2024/03/08 11:54:58;;;;;;;18.43;14.60;;;10.70;1.00;;;;;;5072328;28;20255;-82
2024/03/08 11:57:24;;;;;;;18.10;14.80;;;10.70;1.00;;;;;;5072412;28;20525;-82
2024/03/08 11:59:51;;;;;;;19.73;13.80;;;10.80;1.00;;;;;;5073002;28;20173;-81
2024/03/08 12:02:19;;;;;;;20.50;14.43;;;10.80;1.00;;;;;;5071565;28;20192;-83
2024/03/08 12:04:46;;;;;;;18.57;14.03;;;10.80;1.00;;;;;;5072718;28;20651;-81
2024/03/08 12:07:14;;;;;;;18.77;14.00;;;10.90;1.00;;;;;;5072502;28;20226;-82
2024/03/08 12:09:46;;;;;;;16.50;13.90;;;10.80;1.00;;;;;;5072885;28;20191;-82
2024/03/08 12:12:12;;;;;;;19.73;14.40;;;10.80;1.00;;;;;;5072851;28;20288;-82
2024/03/08 12:14:38;;;;;;;21.27;16.10;;;10.90;1.00;;;;;;5073145;28;20699;-84
2024/03/08 12:17:05;;;;;;;18.60;15.60;;;10.80;1.00;;;;;;5071377;28;20180;-82
2024/03/08 12:19:31;;;;;;;18.97;15.27;;;10.80;1.00;;;;;;5071671;28;20265;-83
2024/03/08 12:21:57;;;;;;;20.53;14.47;;;10.90;1.00;;;;;;5073288;28;20669;-84
2024/03/08 12:24:23;;;;;;;17.13;14.17;;;11.00;1.00;;;;;;5071734;28;20175;-83
2024/03/08 12:26:49;;;;;;;17.37;13.53;;;11.10;1.00;;;;;;5071243;28;20179;-82
2024/03/08 12:29:38;;;;;;;18.27;14.87;;;11.10;1.00;;;;;;5073199;28;20515;-82
2024/03/08 12:32:05;;;;;;;16.33;12.73;;;11.20;1.00;;;;;;5072773;28;20199;-84
2024/03/08 12:34:31;;;;;;;16.97;13.20;;;11.20;1.00;;;;;;5071707;28;20301;-84
2024/03/08 12:36:58;;;;;;;19.97;13.80;;;11.20;1.00;;;;;;5072473;28;20311;-83
2024/03/08 12:39:27;;;;;;;16.80;13.70;;;11.40;1.00;;;;;;5071809;28;20682;-82
2024/03/08 12:41:59;;;;;;;18.20;13.10;;;11.50;1.00;;;;;;5071399;28;20169;-85
2024/03/08 12:44:26;;;;;;;18.83;14.03;;;11.50;1.00;;;;;;5071347;28;20219;-82
2024/03/08 12:46:53;;;;;;;16.43;13.40;;;11.50;1.00;;;;;;5071332;28;20180;-84
2024/03/08 12:49:22;;;;;;;19.30;14.60;;;11.70;1.00;;;;;;5072058;28;20518;-82